Latest Weather Observations for Yulara

IDD60801

Issued at 4:35 pm CST Thursday 28 August 2014 (issued every 30 minutes, with the page automatically refreshed every 10 minutes)

About weather observations | Map of weather stations | Latest weather observations for NT | Other Formats
Station Details ID: 015635 Name: YULARA AIRPORT Lat: -25.19 Lon: 130.97 Height: 492.0 m
Data from the previous 72 hours. | See also: Recent months at Yulara
Date/Time
CST
Temp
°C
App
Temp
°C
Dew
Point
Rel
Hum
%
Delta-T
°C
Wind Press
QNH
hPa
Press
MSL
hPa
Rain
since 9 am
mm
Dir
 
Spd
km/h
Gust
km/h
Spd
kts
Gust
kts
28/04:30pm 24.6 18.8 -9.0 10 13.3 E 15 24 8 13 1021.7 1020.9 0.0
28/04:00pm 24.5 19.1 -7.9 11 13.1 E 13 24 7 13 1021.7 1020.9 0.0
28/03:30pm 24.5 18.5 -6.7 12 12.9 ENE 17 26 9 14 1021.9 1021.2 0.0
28/03:00pm 24.5 17.8 -7.9 11 13.1 ENE 20 33 11 18 1022.1 1021.4 0.0
28/02:30pm 24.0 19.5 -7.1 12 12.7 NE 9 19 5 10 1022.4 1021.7 0.0
28/02:00pm 23.6 17.1 -7.4 12 12.6 ENE 19 30 10 16 1022.8 1022.1 0.0
28/01:30pm 23.5 16.9 -6.5 13 12.3 ENE 20 30 11 16 1023.4 1022.6 0.0
28/01:00pm 23.5 16.4 -4.6 15 12.0 E 24 35 13 19 1023.9 1023.2 0.0
28/12:30pm 22.2 16.0 -4.8 16 11.3 E 19 33 10 18 1024.4 1023.7 0.0
28/12:00pm 22.5 16.6 -5.4 15 11.6 E 17 32 9 17 1024.8 1024.1 0.0
28/11:30am 21.3 15.0 -4.0 18 10.7 E 20 37 11 20 1025.3 1024.7 0.0
28/11:00am 20.9 14.8 -2.2 21 10.1 E 20 30 11 16 1025.7 1025.0 0.0
28/10:30am 19.6 13.7 -2.1 23 9.4 E 19 26 10 14 1026.0 1025.3 0.0
28/10:00am 18.3 11.9 -2.0 25 8.7 E 22 30 12 16 1026.1 1025.4 0.0
28/09:30am 17.2 10.7 -2.4 26 8.2 E 22 32 12 17 1026.1 1025.4 0.0
28/09:00am 15.4 9.3 -2.5 29 7.4 E 20 32 11 17 1025.9 1025.2 0.0
28/08:30am 12.8 8.2 -3.9 31 6.5 ESE 11 17 6 9 1025.7 1025.0 0.0
28/08:00am 9.7 4.6 -5.4 34 5.5 SE 13 17 7 9 1025.2 1024.5 0.0
28/07:30am 6.7 2.3 -5.6 41 4.3 SSE 9 13 5 7 1024.9 1024.2 0.0
28/07:00am 6.1 2.0 -6.5 40 4.3 SSE 7 11 4 6 1024.6 1023.9 0.0
28/06:30am 7.6 2.4 -6.1 37 4.7 SSE 13 15 7 8 1024.3 1023.6 0.0
28/06:00am 7.2 2.0 -6.5 37 4.7 SSE 13 15 7 8 1024.0 1023.3 0.0
28/05:30am 7.3 2.5 -6.4 37 4.7 SSE 11 13 6 7 1023.7 1023.0 0.0
28/05:00am 6.8 2.3 -6.5 38 4.5 S 9 13 5 7 1023.5 1022.7 0.0
28/04:30am 6.6 2.4 -7.4 36 4.6 S 7 9 4 5 1023.4 1022.6 0.0
28/04:00am 8.3 3.7 -7.4 32 5.3 SSE 9 11 5 6 1023.3 1022.5 0.0
28/03:30am 9.7 4.4 -7.0 30 5.8 SSE 13 17 7 9 1023.4 1022.6 0.0
28/03:00am 9.9 4.2 -7.3 29 6.0 SE 15 17 8 9 1023.6 1022.9 0.0
28/02:30am 10.0 5.5 -7.2 29 6.0 SE 9 11 5 6 1023.7 1023.0 0.0
28/02:00am 11.0 6.1 -7.3 27 6.5 ESE 11 13 6 7 1023.6 1022.9 0.0
28/01:30am 10.3 5.7 -7.9 27 6.3 SE 9 11 5 6 1023.8 1023.1 0.0
28/01:00am 10.8 6.2 -7.9 26 6.5 ESE 9 11 5 6 1023.9 1023.2 0.0
28/12:30am 11.6 6.6 -8.3 24 6.9 SE 11 13 6 7 1023.9 1023.2 0.0
28/12:00am 10.4 5.8 -8.2 26 6.4 SE 9 11 5 6 1023.9 1023.2 0.0
 
Date/Time
CST
Temp
°C
App
Temp
°C
Dew
Point
Rel
Hum
%
Delta-T
°C
Wind Press
QNH
hPa
Press
MSL
hPa
Rain
since 9 am
mm
Dir
 
Spd
km/h
Gust
km/h
Spd
kts
Gust
kts
27/11:30pm 12.7 8.1 -8.4 22 7.4 ESE 9 11 5 6 1023.9 1023.2 0.0
27/11:00pm 14.7 10.0 -8.7 19 8.4 E 9 13 5 7 1024.0 1023.3 0.0
27/10:30pm 15.5 11.2 -8.7 18 8.7 E 7 11 4 6 1024.0 1023.3 0.0
27/10:00pm 16.3 11.2 -8.8 17 9.2 E 11 15 6 8 1023.8 1023.1 0.0
27/09:30pm 17.2 12.2 -8.0 17 9.4 E 11 13 6 7 1023.7 1023.0 0.0
27/09:00pm 16.9 12.7 -8.3 17 9.3 E 7 9 4 5 1023.6 1022.9 0.0
27/08:30pm 18.4 13.0 -8.7 15 10.1 E 13 15 7 8 1023.0 1022.3 0.0
27/08:00pm 18.9 13.8 -9.1 14 10.5 E 11 13 6 7 1022.5 1021.8 0.0
27/07:30pm 20.2 15.5 -9.1 13 11.1 E 9 11 5 6 1022.1 1021.4 0.0
27/07:00pm 21.1 16.0 -9.4 12 11.6 E 11 15 6 8 1021.9 1021.2 0.0
27/06:30pm 23.1 16.8 -10.1 10 12.7 E 17 22 9 12 1021.6 1020.8 0.0
27/06:00pm 24.5 18.2 -10.4 9 13.5 E 17 24 9 13 1021.4 1020.6 0.0
27/05:30pm 25.2 18.4 -11.4 8 14.0 ENE 19 26 10 14 1021.2 1020.4 0.0
27/05:00pm 25.4 19.1 -9.7 9 13.9 ESE 17 22 9 12 1021.1 1020.3 0.0
27/04:30pm 25.8 18.6 -9.4 9 14.0 E 22 30 12 16 1020.8 1020.1 0.0
27/04:00pm 25.8 19.2 -9.4 9 14.1 E 19 28 10 15 1020.9 1020.2 0.0
27/03:30pm 25.7 19.5 -9.5 9 14.0 E 17 24 9 13 1021.1 1020.3 0.0
27/03:00pm 25.7 18.5 -9.5 9 14.0 E 22 32 12 17 1021.3 1020.5 0.0
27/02:30pm 25.2 18.5 -8.5 10 13.6 ESE 20 24 11 13 1021.4 1020.6 0.0
27/02:00pm 25.5 19.0 -8.3 10 13.7 E 19 33 10 18 1021.9 1021.2 0.0
27/01:30pm 25.5 19.5 -7.1 11 13.5 E 17 30 9 16 1022.5 1021.8 0.0
27/01:00pm 24.8 19.6 -6.5 12 13.1 E 13 22 7 12 1023.1 1022.4 0.0
27/12:30pm 23.8 18.1 -7.3 12 12.6 ENE 15 26 8 14 1023.7 1023.0 0.0
27/12:00pm 23.3 18.1 -6.6 13 12.2 ENE 13 24 7 13 1024.2 1023.5 0.0
27/11:30am 22.9 17.3 -6.9 13 12.1 NE 15 22 8 12 1024.6 1023.9 0.0
27/11:00am 22.8 17.5 -7.0 13 12.1 NE 13 19 7 10 1024.9 1024.2 0.0
27/10:30am 21.3 16.9 -6.3 15 11.1 NE 9 17 5 9 1025.0 1024.3 0.0
27/10:00am 19.4 15.5 -6.2 17 10.2 E 6 11 3 6 1025.0 1024.3 0.0
27/09:30am 17.3 13.5 -5.8 20 9.0 ESE 6 9 3 5 1024.8 1024.1 0.0
27/09:00am 15.1 10.8 -5.3 24 7.9 SE 9 13 5 7 1024.6 1023.9 0.0
27/08:30am 12.8 8.5 -4.8 29 6.7 SSE 9 15 5 8 1024.4 1023.7 0.0
27/08:00am 8.1 3.9 -4.3 41 4.5 S 9 11 5 6 1023.9 1023.2 0.0
27/07:30am 5.0 0.6 -5.6 46 3.6 S 9 11 5 6 1023.5 1022.7 0.0
27/07:00am 4.3 -0.1 -5.7 48 3.4 S 9 9 5 5 1023.1 1022.4 0.0
27/06:30am 4.4 0.0 -5.9 47 3.4 S 9 13 5 7 1023.0 1022.3 0.0
27/06:00am 5.0 1.0 -5.9 45 3.7 S 7 11 4 6 1022.7 1022.0 0.0
27/05:30am 5.2 0.8 -6.0 44 3.8 S 9 13 5 7 1022.5 1021.8 0.0
27/05:00am 6.2 1.5 -5.4 43 4.0 S 11 13 6 7 1022.4 1021.7 0.0
27/04:30am 5.5 0.3 -6.1 43 3.9 S 13 17 7 9 1022.3 1021.6 0.0
27/04:00am 6.1 3.4 -6.1 41 4.2 CALM 0 6 0 3 1022.1 1021.4 0.0
27/03:30am 7.1 3.1 -5.9 39 4.5 S 7 11 4 6 1022.1 1021.4 0.0
27/03:00am 7.3 3.4 -4.7 42 4.3 S 7 9 4 5 1022.3 1021.6 0.0
27/02:30am 6.3 2.3 -5.3 43 4.0 SSE 7 9 4 5 1022.5 1021.8 0.0
27/02:00am 7.9 3.9 -5.5 38 4.8 SSE 7 9 4 5 1022.7 1022.0 0.0
27/01:30am 7.8 3.8 -6.0 37 4.8 SSE 7 11 4 6 1023.1 1022.4 0.0
27/01:00am 8.7 4.0 -5.5 36 5.1 S 11 13 6 7 1023.3 1022.5 0.0
27/12:30am 7.7 3.9 -6.0 37 4.8 S 6 9 3 5 1023.0 1022.3 0.0
27/12:00am 7.8 5.1 -5.6 38 4.7 CALM 0 0 0 0 1022.9 1022.2 0.0
 
Date/Time
CST
Temp
°C
App
Temp
°C
Dew
Point
Rel
Hum
%
Delta-T
°C
Wind Press
QNH
hPa
Press
MSL
hPa
Rain
since 9 am
mm
Dir
 
Spd
km/h
Gust
km/h
Spd
kts
Gust
kts
26/11:30pm 8.5 5.8 -5.7 36 5.0 CALM 0 0 0 0 1023.0 1022.3 0.0
26/11:00pm 9.8 7.1 -6.1 32 5.7 CALM 0 0 0 0 1023.0 1022.3 0.0
26/10:30pm 11.6 8.9 -5.8 29 6.4 CALM 0 0 0 0 1023.3 1022.5 0.0
26/10:00pm 12.2 7.7 -6.7 26 6.9 ESE 9 11 5 6 1023.5 1022.7 0.0
26/09:30pm 12.6 8.1 -6.4 26 7.0 E 9 11 5 6 1023.4 1022.6 0.0
26/09:00pm 14.8 10.4 -5.5 24 7.8 E 9 11 5 6 1023.3 1022.5 0.0
26/08:30pm 16.3 12.3 -6.0 21 8.6 ESE 7 11 4 6 1023.0 1022.3 0.0
26/08:00pm 18.1 13.6 -6.6 18 9.6 ESE 9 11 5 6 1022.8 1022.1 0.0
26/07:30pm 20.3 15.8 -7.1 15 10.8 ESE 9 11 5 6 1022.4 1021.7 0.0
26/07:00pm 21.9 17.0 -6.8 14 11.6 ESE 11 15 6 8 1022.1 1021.4 0.0
26/06:30pm 23.3 18.8 -6.6 13 12.2 E 9 11 5 6 1021.9 1021.2 0.0
26/06:00pm 24.4 20.3 -6.8 12 12.9 ENE 7 11 4 6 1021.8 1021.1 0.0
26/05:30pm 25.2 20.3 -7.3 11 13.4 E 11 19 6 10 1021.6 1020.8 0.0
26/05:00pm 25.3 20.7 -8.5 10 13.7 E 9 17 5 9 1021.4 1020.6 0.0
26/04:30pm 25.3 19.9 -8.5 10 13.6 ENE 13 20 7 11 1021.5 1020.7 0.0
26/04:00pm 25.0 20.3 -8.7 10 13.5 E 9 20 5 11 1021.5 1020.7 0.0
26/03:30pm 25.4 20.9 -7.2 11 13.5 E 9 19 5 10 1021.7 1020.9 0.0
26/03:00pm 24.9 19.1 -8.8 10 13.4 ENE 15 26 8 14 1022.0 1021.3 0.0
26/02:30pm 25.2 20.9 -5.1 13 13.0 NE 9 19 5 10 1022.4 1021.7 0.0
26/02:00pm 25.0 18.7 -6.3 12 13.1 E 19 28 10 15 1022.8 1022.1 0.0
26/01:30pm 24.3 19.3 -4.0 15 12.3 E 13 24 7 13 1023.5 1022.7 0.0
26/01:00pm 24.6 19.1 -2.0 17 12.1 ENE 17 28 9 15 1024.0 1023.3 0.0
26/12:30pm 24.1 18.0 -2.4 17 11.8 E 20 30 11 16 1024.7 1024.0 0.0
26/12:00pm 22.9 16.9 -1.2 20 10.9 E 20 26 11 14 1025.2 1024.5 0.0
26/11:30am 23.1 19.0 -0.4 21 10.8 NNE 11 17 6 9 1025.7 1025.0 0.0
26/11:00am 21.4 15.7 -0.6 23 10.0 NE 19 28 10 15 1026.2 1025.5 0.0
26/10:30am 19.9 14.1 -0.1 26 9.0 NE 20 26 11 14 1026.5 1025.8 0.0
26/10:00am 18.5 12.8 -0.8 27 8.5 NE 19 24 10 13 1026.8 1026.1 0.0
26/09:30am 17.9 12.2 -0.4 29 8.0 ENE 19 24 10 13 1026.8 1026.1 0.0
26/09:00am 15.4 11.9 -1.6 31 7.1 ESE 7 11 4 6 1026.9 1026.2 0.0
26/08:30am 11.9 7.9 -1.9 38 5.5 SSE 9 13 5 7 1026.7 1026.0 0.0
26/08:00am 7.8 3.8 -2.5 48 3.9 S 9 11 5 6 1026.6 1025.9 0.0
26/07:30am 5.3 1.1 -3.5 53 3.2 S 9 11 5 6 1026.0 1025.3 0.0
26/07:00am 4.8 -0.1 -3.7 54 3.0 SSW 13 15 7 8 1025.8 - 0.0
26/06:30am 4.9 -0.1 -3.9 53 3.1 SSW 13 15 7 8 1025.3 1024.7 0.0
26/06:00am 5.1 1.2 -4.2 51 3.3 S 7 13 4 7 1025.0 1024.3 0.0
26/05:30am 6.2 2.0 -3.7 49 3.6 S 9 15 5 8 1024.7 1024.0 0.0
26/05:00am 6.5 2.8 -3.2 50 3.6 S 7 9 4 5 1024.5 - 0.0
26/04:30am 6.3 2.0 -4.4 46 3.8 S 9 13 5 7 1024.4 1023.7 0.0
26/04:00am 6.6 4.2 -3.3 49 3.6 CALM 0 0 0 0 1024.3 - 0.0
26/03:30am 6.1 2.4 -3.3 51 3.4 SSE 7 9 4 5 1024.3 1023.6 0.0
26/03:00am 7.2 4.0 -3.1 48 3.8 SSE 4 9 2 5 1024.5 1023.8 0.0
26/02:30am 7.6 4.8 -3.6 45 4.1 S 2 6 1 3 1024.6 1023.9 0.0
26/02:00am 10.8 6.3 -2.9 38 5.4 SE 11 13 6 7 1024.7 - 0.0
26/01:30am 8.8 4.6 -3.7 41 4.7 SE 9 11 5 6 1025.0 1024.3 0.0
26/01:00am 12.3 8.2 -2.7 35 6.0 SE 9 11 5 6 1025.1 - 0.0
26/12:30am 12.8 8.4 -2.6 34 6.1 ESE 11 11 6 6 1025.3 1024.7 0.0
26/12:00am 13.5 9.5 -2.4 33 6.4 ESE 9 13 5 7 1025.6 1024.9 0.0
 
Date/Time
CST
Temp
°C
App
Temp
°C
Dew
Point
Rel
Hum
%
Delta-T
°C
Wind Press
QNH
hPa
Press
MSL
hPa
Rain
since 9 am
mm
Dir
 
Spd
km/h
Gust
km/h
Spd
kts
Gust
kts
25/11:30pm 13.7 9.3 -2.7 32 6.6 SE 11 13 6 7 1025.7 1025.0 0.0
25/11:00pm 14.4 10.0 -2.5 31 6.9 SE 11 13 6 7 1025.7 - 0.0
25/10:30pm 14.0 9.9 -2.8 31 6.8 ESE 9 11 5 6 1025.7 1025.0 0.0
25/10:00pm 15.7 11.7 -2.3 29 7.5 ESE 9 11 5 6 1025.8 - 0.0
25/09:30pm 15.1 11.4 -3.3 28 7.4 E 7 9 4 5 1025.7 1025.0 0.0
25/09:00pm 16.7 12.8 -1.4 29 7.7 E 9 11 5 6 1025.6 1024.9 0.0
25/08:30pm 13.5 10.7 -3.3 31 6.7 E 2 6 1 3 1025.3 1024.7 0.0
25/08:00pm 15.7 12.0 -2.7 28 7.6 E 7 9 4 5 1025.0 - 0.0
25/07:30pm 19.5 15.8 -2.8 22 9.5 ENE 7 9 4 5 1024.8 1024.1 0.0
25/07:00pm 21.4 17.0 -2.5 20 10.4 E 11 13 6 7 1024.6 - 0.0
25/06:30pm 23.2 18.4 -2.4 18 11.3 E 13 19 7 10 1024.3 1023.6 0.0
25/06:00pm 24.5 18.5 -2.9 16 12.1 E 19 30 10 16 1024.1 1023.4 0.0
25/05:30pm 24.9 18.8 -3.5 15 12.5 E 19 26 10 14 1024.1 1023.4 0.0
25/05:00pm 25.0 18.0 -3.4 15 12.6 E 24 32 13 17 1024.0 - 0.0

Other Formats:

Comma delimited format used in spreadsheet applications
http://www.bom.gov.au/fwo/IDD60801/IDD60801.94462.axf

JavaScript Object Notation format (JSON) in row-major order
http://www.bom.gov.au/fwo/IDD60801/IDD60801.94462.json